• Join FlightAware (Why Join?)
  • Login
  • US Flag 
06:04AM EDT


 

Airport Tracker/Info


-or-


 

Live Flight TrackerFlight Track Log ✈ ASA201 ✈ 12-May-2013 ✈ KSJC - KSEA

Flight Track Log - Related Links

Times and Time Zones

All times are in EDT time to prevent confusion due to time zone crossing. See the ASA201 flight status page for this flight to view local times or setup timezone preferences in your user account.

Time Position Orientation Groundspeed Altitude Reporting Facility
EDT Latitude Longitude Course Direction KTS MPH feet Rate Location/Type
09:04PM 37.4000 -121.9667 North 166 191 1,800  Level Northern Cal TRACON
09:05PM 37.4500 -121.9667 360° North 236 272 3,700 1,320 Climbing Northern Cal TRACON
09:07PM 37.4167 -121.9000 122° Southeast 230 265 4,500 1,380 Climbing Northern Cal TRACON
09:08PM 37.3833 -121.8333 122° Southeast 242 278 6,500 2,040 Climbing Northern Cal TRACON
09:08PM 37.3611 -121.8153 147° Southeast 236 272 7,300 2,160 Climbing Oakland Center
09:09PM 37.3042 -121.8031 170° South 255 293 9,500 2,160 Climbing Oakland Center
09:10PM 38.0304 -122.0000 North  Level FlightAware Approximate
09:10PM 37.3089 -121.8875 274° West 279 321 11,800  Level Oakland Center
09:11PM 37.3842 -121.9500 327° Northwest 322 371 13,100 1,860 Climbing Oakland Center
09:12PM 37.4853 -121.9639 354° North 358 412 15,600 2,220 Climbing Oakland Center
09:13PM 37.5914 -121.9711 357° North 379 436 17,700 2,040 Climbing Oakland Center
09:14PM 37.7003 -121.9786 357° North 394 453 19,800 2,280 Climbing Oakland Center
09:15PM 37.8400 -121.9881 357° North 420 483 22,400 2,160 Climbing Oakland Center
09:16PM 37.9586 -121.9964 357° North 428 493 24,300 1,800 Climbing Oakland Center
09:17PM 38.0794 -122.0042 357° North 436 502 26,100 1,560 Climbing Oakland Center
09:18PM 38.2042 -122.0128 357° North 448 516 27,600 1,380 Climbing Oakland Center
09:19PM 38.3319 -122.0211 357° North 460 529 29,000 1,320 Climbing Oakland Center
09:20PM 38.4625 -122.0322 356° North 469 540 30,400 1,620 Climbing Oakland Center
09:21PM 38.5925 -122.0403 357° North 471 542 32,400 1,620 Climbing Oakland Center
09:22PM 38.7283 -122.0497 357° North 463 533 33,700 1,140 Climbing Oakland Center
09:23PM 38.8597 -122.0597 357° North 468 539 34,800 1,020 Climbing Oakland Center
09:24PM 38.9908 -122.0675 357° North 470 541 35,900 540 Climbing Oakland Center
09:25PM 39.1206 -122.0767 357° North 465 535 36,000  Climbing Oakland Center
09:26PM 39.2508 -122.0856 357° North 467 537 36,000  Level Oakland Center
09:27PM 39.4075 -122.0969 357° North 469 540 36,000  Level Oakland Center
09:28PM 39.5356 -122.1047 357° North 463 533 36,000  Level Oakland Center
09:29PM 39.6633 -122.1136 357° North 461 531 36,000  Level Oakland Center
09:30PM 39.7911 -122.1233 357° North 461 531 36,000  Level Oakland Center
09:31PM 39.9189 -122.1328 357° North 463 533 36,000  Level Oakland Center
09:32PM 40.0464 -122.1389 358° North 463 533 36,000  Level Oakland Center
09:33PM 40.1733 -122.1461 358° North 469 540 36,000  Level Oakland Center
09:34PM 40.3242 -122.1603 356° North 462 532 36,000  Level Oakland Center
09:35PM 40.4528 -122.1706 357° North 465 535 36,000  Level Oakland Center
09:36PM 40.5842 -122.1800 357° North 477 549 36,000  Level Oakland Center
09:37PM 40.7147 -122.1897 357° North 472 543 36,000  Level Oakland Center
09:39PM 40.8447 -122.1972 358° North 469 540 36,000  Level Oakland Center
09:40PM 40.9758 -122.2058 357° North 472 543 36,000  Level Oakland Center
09:41PM 41.1081 -122.2197 355° North 477 549 36,000  Level Oakland Center
09:42PM 41.2656 -122.2325 357° North 474 545 36,000  Level Oakland Center
09:43PM 41.3897 -122.2417 357° North 473 544 36,000  Level Oakland Center
09:43PM 41.4153 -122.2456 353° North 472 543 36,000  Level Seattle Center
09:44PM 41.5461 -122.2536 357° North 470 541 36,000  Level Seattle Center
09:45PM 41.6783 -122.2644 356° North 473 544 36,000  Level Seattle Center
09:46PM 41.8114 -122.2733 357° North 475 547 36,000  Level Seattle Center
09:47PM 41.9442 -122.2842 357° North 473 544 36,000  Level Seattle Center
09:48PM 42.0769 -122.2939 357° North 471 542 36,000  Level Seattle Center
09:49PM 42.2097 -122.3036 357° North 470 541 36,000  Level Seattle Center
09:50PM 42.3425 -122.3125 357° North 473 544 36,000  Level Seattle Center
09:51PM 42.4744 -122.3231 357° North 471 542 36,000  Level Seattle Center
09:52PM 42.6061 -122.3336 357° North 470 541 36,000  Level Seattle Center
09:53PM 42.7383 -122.3436 357° North 472 543 36,000  Level Seattle Center
09:54PM 42.8942 -122.3553 357° North 474 545 36,000  Level Seattle Center
09:55PM 43.0272 -122.3650 357° North 478 550 36,000  Level Seattle Center
09:56PM 43.1608 -122.3756 357° North 480 552 36,000  Level Seattle Center
09:57PM 43.2928 -122.3844 357° North 475 547 36,000  Level Seattle Center
09:58PM 43.4250 -122.3969 356° North 476 548 36,000  Level Seattle Center
09:59PM 43.5556 -122.4067 357° North 473 544 36,000  Level Seattle Center
10:00PM 43.6872 -122.4183 356° North 473 544 36,000  Level Seattle Center
10:01PM 43.8197 -122.4281 357° North 477 549 36,000  Level Seattle Center
10:02PM 43.9517 -122.4392 357° North 477 549 36,000  Level Seattle Center
10:03PM 44.0842 -122.4508 356° North 479 551 36,000  Level Seattle Center
10:04PM 44.2164 -122.4625 356° North 480 552 36,000  Level Seattle Center
10:05PM 44.3492 -122.4719 357° North 480 552 36,000  Level Seattle Center
10:06PM 44.5094 -122.4861 356° North 482 555 36,000  Level Seattle Center
10:07PM 44.6428 -122.4975 357° North 483 556 36,000  Level Seattle Center
10:08PM 44.7756 -122.5083 357° North 480 552 36,000  Level Seattle Center
10:09PM 44.8889 -122.5189 356° North 485 558 36,000  Level Seattle Center
10:10PM 45.0489 -122.5319 357° North 483 556 36,000  Level Seattle Center
10:11PM 45.1831 -122.5433 357° North 485 558 36,000  Level Seattle Center
10:12PM 45.3175 -122.5528 357° North 486 559 36,000  Level Seattle Center
10:13PM 45.4528 -122.5661 356° North 490 564 36,000  Level Seattle Center
10:14PM 45.5872 -122.5769 357° North 486 559 36,000 -900 Level Seattle Center
10:15PM 45.7225 -122.5883 357° North 488 562 34,200 -2,340 Descending Seattle Center
10:16PM 45.8547 -122.6158 352° North 481 554 31,400 -2,460 Descending Seattle Center
10:17PM 45.9864 -122.6492 350° North 483 556 29,300 -2,100 Descending Seattle Center
10:18PM 46.1128 -122.6819 350° North 466 536 27,200 -2,160 Descending Seattle Center
10:19PM 46.2478 -122.7103 352° North 450 518 25,000 -2,100 Descending Seattle Center
10:20PM 46.3706 -122.7275 354° North 448 516 23,000 -2,100 Descending Seattle Center
10:21PM 46.4939 -122.6953 10° North 454 522 20,800 -2,040 Descending Seattle Center
10:22PM 46.6147 -122.6586 12° North 450 518 18,900 -1,980 Descending Seattle Center
10:23PM 46.7475 -122.6175 12° North 442 509 16,800 -2,160 Descending Seattle Center
10:24PM 46.8375 -122.5906 12° North 431 496 15,200 -2,100 Descending Seattle Center
10:24PM 46.8633 -122.5831 11° North 425 489 14,700 -1,560 Descending Seattle Center
10:25PM 46.9533 -122.5572 11° North 392 451 13,500 -1,440 Descending Seattle Center
10:26PM 47.0764 -122.5022 17° North 373 429 11,800 -1,500 Descending Seattle Center
10:27PM 47.1703 -122.4831 North 342 394 10,300 -1,260 Descending Seattle Center
10:28PM 47.2447 -122.4706 North 316 364 9,500 -1,020 Descending Seattle Center
10:29PM 47.3222 -122.4608 North 298 343 8,600 -1,020 Descending Seattle Center
10:29PM 47.3419 -122.4567 North 303 349 8,300 -1,020 Descending Seattle Center
10:30PM 47.4011 -122.4567 360° North 279 321 7,600 -840 Descending Seattle Center
10:30PM 47.4189 -122.4556 North 277 319 7,500 -1,020 Descending Seattle Center
10:31PM 47.4769 -122.4578 359° North 262 302 6,600 -1,200 Descending Seattle Center
10:32PM 47.4931 -122.4553 North 265 305 6,300 -1,200 Descending Seattle Center
10:32PM 47.5547 -122.4578 358° North 259 298 5,300 -1,200 Descending Seattle Center
10:33PM 47.6153 -122.4342 15° North 259 298 4,300 -1,020 Descending Seattle Center
10:34PM 47.6217 -122.4044 72° East 251 289 4,100 -420 Descending Seattle Center
10:34PM 47.6258 -122.3431 84° East 210 242 3,900 -420 Descending Seattle Center
10:35PM 47.6186 -122.3208 116° Southeast 210 242 3,700 -840 Descending Seattle Center
10:35PM 47.5864 -122.3189 178° South 167 192 3,100 -720 Descending Seattle Center
10:36PM 47.5700 -122.3175 177° South 178 205 3,000 -840 Descending Seattle Center
10:36PM 47.5381 -122.3128 174° South 171 197 2,300 -1,020 Descending Seattle Center
10:37PM 47.5228 -122.3072 166° South 173 199 2,000 -1,200 Descending Seattle Center
10:37PM 47.4944 -122.3072 180° South 144 166 1,100 -1,200 Descending Seattle Center
10:38PM 47.4825 -122.3081 183° South 145 167 800 -540 Descending Seattle Center
10:39PM 47.4389 -122.3094 181° South 146 168 400 -420 Descending Seattle Center